createdAt,value
2018-02-22T00:01:21.653Z,91.97
2018-02-22T00:03:48.513Z,81.37
2018-02-22T00:06:15.333Z,73.35
2018-02-22T00:08:42.151Z,78.32
2018-02-22T00:11:09.730Z,88.25
2018-02-22T00:13:36.554Z,74.00
2018-02-22T00:16:03.431Z,85.50
2018-02-22T00:18:30.301Z,87.65
2018-02-22T00:20:57.138Z,73.28
2018-02-22T00:23:23.976Z,83.10
2018-02-22T00:25:50.931Z,86.85
2018-02-22T00:28:17.750Z,96.43
2018-02-22T00:30:44.588Z,89.90
2018-02-22T00:33:11.433Z,92.30
2018-02-22T00:35:39.026Z,84.82
2018-02-22T00:38:05.838Z,90.25
2018-02-22T00:40:32.665Z,79.57
2018-02-22T00:42:59.500Z,84.93
2018-02-22T00:45:26.362Z,89.00
2018-02-22T00:47:53.182Z,78.00
2018-02-22T00:50:20.027Z,92.30
2018-02-22T00:52:46.847Z,74.82
2018-02-22T00:55:14.473Z,74.85
2018-02-22T00:57:41.293Z,93.43
2018-02-22T01:00:08.143Z,94.45
2018-02-22T01:02:34.966Z,80.00
2018-02-22T01:05:01.882Z,86.65
2018-02-22T01:07:28.706Z,74.90
2018-02-22T01:09:55.558Z,75.03
2018-02-22T01:12:22.406Z,80.55
2018-02-22T01:14:49.263Z,73.85
2018-02-22T01:17:16.826Z,75.53
2018-02-22T01:19:43.691Z,77.05
2018-02-22T01:22:10.539Z,75.30
2018-02-22T01:24:37.361Z,78.47
2018-02-22T01:27:04.986Z,73.57
2018-02-22T01:29:31.786Z,72.40
2018-02-22T01:31:58.617Z,74.10
2018-02-22T01:34:25.417Z,68.12
2018-02-22T01:36:52.333Z,68.15
2018-02-22T01:39:19.191Z,67.90
2018-02-22T01:41:46.010Z,78.35
2018-02-22T01:44:12.826Z,69.65
2018-02-22T01:46:39.732Z,66.05
2018-02-22T01:49:06.540Z,67.15
2018-02-22T01:51:33.368Z,69.78
2018-02-22T01:54:00.217Z,63.80
2018-02-22T01:56:27.085Z,74.12
2018-02-22T01:58:53.921Z,68.87
2018-02-22T02:01:21.566Z,68.25
2018-02-22T02:03:48.411Z,64.43
2018-02-22T02:06:15.261Z,61.60
2018-02-22T02:08:42.066Z,63.08
2018-02-22T02:11:09.628Z,74.22
2018-02-22T02:13:36.498Z,57.78
2018-02-22T02:16:03.369Z,60.95
2018-02-22T02:18:30.204Z,55.22
2018-02-22T02:20:57.101Z,59.88
2018-02-22T02:23:23.922Z,56.95
2018-02-22T02:25:50.827Z,53.75
2018-02-22T02:28:17.676Z,53.87
2018-02-22T02:30:45.287Z,53.00
2018-02-22T02:33:12.129Z,49.17
2018-02-22T02:35:39.056Z,51.92
2018-02-22T02:38:05.882Z,55.65
2018-02-22T02:40:32.731Z,48.72
2018-02-22T02:42:59.567Z,55.40
2018-02-22T02:45:26.490Z,58.40
2018-02-22T02:47:53.347Z,50.30
2018-02-22T02:50:20.190Z,50.92
2018-02-22T02:52:47.007Z,49.30
2018-02-22T02:55:14.000Z,52.83
2018-02-22T02:57:40.871Z,46.92
2018-02-22T03:00:07.736Z,54.85
2018-02-22T03:02:35.367Z,51.05
2018-02-22T03:05:02.209Z,47.95
2018-02-22T03:07:29.038Z,44.85
2018-02-22T03:09:56.613Z,43.87
2018-02-22T03:12:23.482Z,46.30
2018-02-22T03:14:50.281Z,48.20
2018-02-22T03:17:17.138Z,50.10
2018-02-22T03:19:44.018Z,49.75
2018-02-22T03:22:10.842Z,43.25
2018-02-22T03:24:37.634Z,47.45
2018-02-22T03:27:04.525Z,48.83
2018-02-22T03:29:31.342Z,48.40
2018-02-22T03:31:58.350Z,43.38
2018-02-22T03:34:25.277Z,48.63
2018-02-22T03:36:52.890Z,47.47
2018-02-22T03:39:19.717Z,48.83
2018-02-22T03:41:46.562Z,47.17
2018-02-22T03:44:13.399Z,53.58
2018-02-22T03:46:40.266Z,46.00
2018-02-22T03:49:07.143Z,50.80
2018-02-22T03:51:34.715Z,45.58
2018-02-22T03:54:02.344Z,52.60
2018-02-22T03:56:29.306Z,51.53
2018-02-22T03:58:56.874Z,53.83
2018-02-22T04:01:24.467Z,52.67
2018-02-22T04:03:51.339Z,51.37
2018-02-22T04:06:18.378Z,52.40
2018-02-22T04:08:45.219Z,57.97
2018-02-22T04:11:12.100Z,57.95
2018-02-22T04:13:39.701Z,58.63
2018-02-22T04:16:06.586Z,59.95
2018-02-22T04:18:33.433Z,45.20
2018-02-22T04:21:00.307Z,42.42
2018-02-22T04:23:27.870Z,46.30
2018-02-22T04:25:54.787Z,43.38
2018-02-22T04:28:22.394Z,45.20
2018-02-22T04:30:49.219Z,47.88
2018-02-22T04:33:16.030Z,47.33
2018-02-22T04:35:43.670Z,49.95
2018-02-22T04:38:10.534Z,52.78
2018-02-22T04:40:37.378Z,44.60
2018-02-22T04:43:04.988Z,63.72
2018-02-22T04:45:31.851Z,54.22
2018-02-22T04:47:58.705Z,59.40
2018-02-22T04:50:25.537Z,44.55
2018-02-22T04:52:52.386Z,46.88
2018-02-22T04:55:19.246Z,41.80
2018-02-22T04:57:46.094Z,41.20
2018-02-22T05:00:14.550Z,34.72
2018-02-22T05:02:41.399Z,36.05
2018-02-22T05:05:08.351Z,27.37
2018-02-22T05:07:35.165Z,33.17
2018-02-22T05:10:02.059Z,30.62
2018-02-22T05:12:29.656Z,34.53
2018-02-22T05:14:56.526Z,38.88
2018-02-22T05:17:23.409Z,37.75
2018-02-22T05:19:50.241Z,37.70
2018-02-22T05:22:17.814Z,40.97
2018-02-22T05:24:45.443Z,38.42
2018-02-22T05:27:12.274Z,42.88
2018-02-22T05:29:39.867Z,36.58
2018-02-22T05:32:07.474Z,41.20
2018-02-22T05:34:34.547Z,39.42
2018-02-22T05:37:01.707Z,38.72
2018-02-22T05:39:28.562Z,41.10
2018-02-22T05:41:55.378Z,38.63
2018-02-22T05:44:22.202Z,41.75
2018-02-22T05:46:53.143Z,34.22
2018-02-22T05:49:20.027Z,41.58
2018-02-22T05:51:47.666Z,41.55
2018-02-22T05:54:14.516Z,32.42
2018-02-22T05:56:41.434Z,39.65
2018-02-22T05:59:08.295Z,41.42
2018-02-22T06:01:35.148Z,36.28
2018-02-22T06:04:02.024Z,42.00
2018-02-22T06:06:28.930Z,38.53
2018-02-22T06:08:55.886Z,38.60
2018-02-22T06:11:22.778Z,35.10
2018-02-22T06:13:49.639Z,33.35
2018-02-22T06:16:16.498Z,42.95
2018-02-22T06:18:43.337Z,36.13
2018-02-22T06:21:10.289Z,37.45
2018-02-22T06:23:37.118Z,38.47
2018-02-22T06:26:03.954Z,34.10
2018-02-22T06:28:31.523Z,34.13
2018-02-22T06:30:58.337Z,38.05
2018-02-22T06:33:25.906Z,38.92
2018-02-22T06:35:52.794Z,36.85
2018-02-22T06:38:19.615Z,34.00
2018-02-22T06:40:46.453Z,41.70
2018-02-22T06:43:13.395Z,39.05
2018-02-22T06:45:40.319Z,36.53
2018-02-22T06:48:07.215Z,38.60
2018-02-22T06:50:34.928Z,32.38
2018-02-22T06:53:01.813Z,37.60
2018-02-22T06:55:28.814Z,41.50
2018-02-22T06:57:55.843Z,37.92
2018-02-22T07:00:23.626Z,39.13
2018-02-22T07:02:51.628Z,37.88
2018-02-22T07:05:18.562Z,40.03
2018-02-22T07:07:45.515Z,37.92
2018-02-22T07:10:12.439Z,34.97
2018-02-22T07:12:39.302Z,33.30
2018-02-22T07:15:06.333Z,40.03
2018-02-22T07:17:33.226Z,30.92
2018-02-22T07:20:00.846Z,35.95
2018-02-22T07:22:27.839Z,35.95
2018-02-22T07:24:54.927Z,37.25
2018-02-22T07:27:22.053Z,33.10
2018-02-22T07:29:49.875Z,41.08
2018-02-22T07:32:17.524Z,34.45
2018-02-22T07:34:44.514Z,38.50
2018-02-22T07:37:12.244Z,34.78
2018-02-22T07:39:39.895Z,38.45
2018-02-22T07:42:06.942Z,34.67
2018-02-22T07:44:34.575Z,40.53
2018-02-22T07:47:02.289Z,37.72
2018-02-22T07:49:29.190Z,35.20
2018-02-22T07:51:56.850Z,42.97
2018-02-22T07:54:23.787Z,38.20
2018-02-22T07:56:50.777Z,35.33
2018-02-22T07:59:18.654Z,30.00
2018-02-22T08:01:45.630Z,34.15
2018-02-22T08:04:12.851Z,34.63
2018-02-22T08:06:39.762Z,38.50
2018-02-22T08:09:06.626Z,31.85
2018-02-22T08:11:33.525Z,34.30
2018-02-22T08:14:00.500Z,31.42
2018-02-22T08:16:27.558Z,38.65
2018-02-22T08:18:54.561Z,34.95
2018-02-22T08:21:21.569Z,29.65
2018-02-22T08:23:48.560Z,30.90
2018-02-22T08:26:15.446Z,26.37
2018-02-22T08:28:43.141Z,34.15
2018-02-22T08:31:10.830Z,30.80
2018-02-22T08:33:38.455Z,34.63
2018-02-22T08:36:05.415Z,33.35
2018-02-22T08:38:33.061Z,34.15
2018-02-22T08:41:00.153Z,32.30
2018-02-22T08:43:27.185Z,29.05
2018-02-22T08:45:55.046Z,34.58
2018-02-22T08:48:22.125Z,35.17
2018-02-22T08:50:49.815Z,35.08
2018-02-22T08:53:16.999Z,34.55
2018-02-22T08:55:43.964Z,34.33
2018-02-22T08:58:11.645Z,33.30
2018-02-22T09:00:38.655Z,36.17
2018-02-22T09:03:05.602Z,35.55
2018-02-22T09:05:33.186Z,35.25
2018-02-22T09:08:00.051Z,32.83
2018-02-22T09:10:26.957Z,37.47
2018-02-22T09:12:53.798Z,30.15
2018-02-22T09:15:21.390Z,32.38
2018-02-22T09:17:48.219Z,31.02
2018-02-22T09:20:15.777Z,37.55
2018-02-22T09:22:42.646Z,31.60
2018-02-22T09:25:09.499Z,36.25
2018-02-22T09:27:36.331Z,34.50
2018-02-22T09:30:03.223Z,34.78
2018-02-22T09:32:30.047Z,33.35
2018-02-22T09:34:56.846Z,34.00
2018-02-22T09:37:23.682Z,33.80
2018-02-22T09:39:50.500Z,30.98
2018-02-22T09:42:18.067Z,31.33
2018-02-22T09:44:45.650Z,33.30
2018-02-22T09:47:12.478Z,36.65
2018-02-22T09:49:39.441Z,36.63
2018-02-22T09:52:06.291Z,33.88
2018-02-22T09:54:33.169Z,35.65
2018-02-22T09:56:59.999Z,41.78
2018-02-22T09:59:26.813Z,38.72
2018-02-22T10:01:53.702Z,38.50
2018-02-22T10:04:20.546Z,36.15
2018-02-22T10:06:47.375Z,40.75
2018-02-22T10:09:14.246Z,38.00
2018-02-22T10:11:41.076Z,42.03
2018-02-22T10:14:07.915Z,33.38
2018-02-22T10:16:34.774Z,40.97
2018-02-22T10:19:02.364Z,37.45
2018-02-22T10:21:29.211Z,39.55
2018-02-22T10:23:56.050Z,39.58
2018-02-22T10:26:22.891Z,39.42
2018-02-22T10:28:49.729Z,34.25
2018-02-22T10:31:16.574Z,37.97
2018-02-22T10:33:44.143Z,35.35
2018-02-22T10:36:10.975Z,35.10
2018-02-22T10:38:38.562Z,33.15
2018-02-22T10:41:05.386Z,38.75
2018-02-22T10:43:32.221Z,33.17
2018-02-22T10:45:59.091Z,37.45
2018-02-22T10:48:25.923Z,32.25
2018-02-22T10:50:52.803Z,40.55
2018-02-22T10:53:19.638Z,37.70
2018-02-22T10:55:46.467Z,31.98
2018-02-22T10:58:13.302Z,38.47
2018-02-22T11:00:46.158Z,31.52
2018-02-22T11:03:13.718Z,34.20
2018-02-22T11:05:41.270Z,32.63
2018-02-22T11:08:08.431Z,32.50
2018-02-22T11:10:35.266Z,32.38
2018-02-22T11:13:02.110Z,37.75
2018-02-22T11:15:28.970Z,32.70
2018-02-22T11:17:55.794Z,32.53
2018-02-22T11:20:23.402Z,31.45
2018-02-22T11:22:50.262Z,34.42
2018-02-22T11:25:17.873Z,32.03
2018-02-22T11:27:44.746Z,35.55
2018-02-22T11:30:11.593Z,31.87
2018-02-22T11:32:38.442Z,33.67
2018-02-22T11:35:05.281Z,33.10
2018-02-22T11:37:32.127Z,35.38
2018-02-22T11:39:59.003Z,36.58
2018-02-22T11:42:26.591Z,31.67
2018-02-22T11:44:53.653Z,32.20
2018-02-22T11:47:20.887Z,32.47
2018-02-22T11:49:48.940Z,31.77
2018-02-22T11:52:15.809Z,30.55
2018-02-22T11:54:42.678Z,30.12
2018-02-22T11:57:09.510Z,26.98
2018-02-22T11:59:36.347Z,29.73
2018-02-22T12:02:03.194Z,28.33
2018-02-22T12:04:30.788Z,31.02
2018-02-22T12:06:58.422Z,32.05
2018-02-22T12:09:25.247Z,32.10
2018-02-22T12:11:52.227Z,32.60
2018-02-22T12:14:19.232Z,31.65
2018-02-22T12:16:47.323Z,33.33
2018-02-22T12:19:14.484Z,28.85
2018-02-22T12:21:41.522Z,32.58
2018-02-22T12:24:09.310Z,35.88
2018-02-22T12:26:36.378Z,33.78
2018-02-22T12:29:03.293Z,35.60
2018-02-22T12:31:30.107Z,30.20
2018-02-22T12:33:56.966Z,31.45
2018-02-22T12:36:24.627Z,29.83
2018-02-22T12:38:51.506Z,32.10
2018-02-22T12:41:18.499Z,29.83
2018-02-22T12:43:45.465Z,33.50
2018-02-22T12:46:12.363Z,32.38
2018-02-22T12:48:39.438Z,37.45
2018-02-22T12:51:09.070Z,30.73
2018-02-22T12:53:39.953Z,25.65
2018-02-22T12:56:07.587Z,32.90
2018-02-22T12:58:34.557Z,31.83
2018-02-22T13:01:04.947Z,33.65
2018-02-22T13:03:32.408Z,39.65
2018-02-22T13:06:00.859Z,33.95
2018-02-22T13:08:27.939Z,32.97
2018-02-22T13:10:57.556Z,27.40
2018-02-22T13:13:24.516Z,27.95
2018-02-22T13:15:51.509Z,30.27
2018-02-22T13:18:18.645Z,28.10
2018-02-22T13:20:45.550Z,33.10
2018-02-22T13:23:12.603Z,32.95
2018-02-22T13:25:43.444Z,28.65
2018-02-22T13:28:16.232Z,34.95
2018-02-22T13:30:43.166Z,30.35
2018-02-22T13:33:25.370Z,28.95
2018-02-22T13:35:53.950Z,31.58
2018-02-22T13:38:34.066Z,28.65
2018-02-22T13:41:04.687Z,31.67
2018-02-22T13:48:01.268Z,29.23
2018-02-22T13:50:48.076Z,30.40
2018-02-22T13:53:16.031Z,30.45
2018-02-22T13:55:43.147Z,34.05
2018-02-22T13:58:12.258Z,23.15
2018-02-22T14:00:55.693Z,25.17
2018-02-22T14:03:24.913Z,32.42
2018-02-22T14:08:48.150Z,29.98
2018-02-22T14:14:00.257Z,27.95
2018-02-22T14:16:28.795Z,27.70
2018-02-22T14:19:02.602Z,27.42
2018-02-22T14:21:33.442Z,33.20
2018-02-22T14:24:02.010Z,30.45
2018-02-22T14:26:30.666Z,26.37
2018-02-22T14:28:58.493Z,26.05
2018-02-22T14:31:28.040Z,31.40
2018-02-22T14:33:54.984Z,30.48
2018-02-22T14:36:22.720Z,28.35
2018-02-22T14:38:50.443Z,34.55
2018-02-22T14:41:17.439Z,30.02
2018-02-22T14:43:47.406Z,37.22
2018-02-22T14:46:14.390Z,31.58
2018-02-22T14:48:41.270Z,37.80
2018-02-22T14:51:09.167Z,36.47
2018-02-22T14:53:38.138Z,35.70
2018-02-22T14:56:06.015Z,35.75
2018-02-22T14:58:32.976Z,30.48
2018-02-22T15:01:07.026Z,35.47
2018-02-22T15:03:34.545Z,32.28
2018-02-22T15:06:08.855Z,35.20
2018-02-22T15:08:36.651Z,31.02
2018-02-22T15:11:04.712Z,39.17
2018-02-22T15:13:47.826Z,36.47
2018-02-22T15:16:22.037Z,36.00
2018-02-22T15:18:53.560Z,36.53
2018-02-22T15:21:23.476Z,37.63
2018-02-22T15:23:52.373Z,33.75
2018-02-22T15:26:25.045Z,32.85
2018-02-22T15:28:52.119Z,38.42
2018-02-22T15:31:26.580Z,45.35
2018-02-22T15:33:55.451Z,38.60
2018-02-22T15:36:22.411Z,43.13
2018-02-22T15:38:49.423Z,36.28
2018-02-22T15:41:18.510Z,37.00
2018-02-22T15:43:48.012Z,44.70
2018-02-22T15:46:16.941Z,36.53
2018-02-22T15:48:43.858Z,36.47
2018-02-22T15:51:14.385Z,30.98
2018-02-22T15:53:41.389Z,39.35
2018-02-22T15:56:12.502Z,36.97
2018-02-22T15:58:40.063Z,37.42
2018-02-22T16:01:07.054Z,36.95
2018-02-22T16:03:34.608Z,36.90
2018-02-22T16:06:02.825Z,35.67
2018-02-22T16:08:31.134Z,28.60
2018-02-22T16:10:58.259Z,37.55
2018-02-22T16:13:27.499Z,32.72
2018-02-22T16:15:57.748Z,38.65
2018-02-22T16:18:26.628Z,36.95
2018-02-22T16:20:54.843Z,40.83
2018-02-22T16:23:22.790Z,40.60
2018-02-22T16:25:51.257Z,37.83
2018-02-22T16:28:35.877Z,42.85
2018-02-22T16:31:07.731Z,42.22
2018-02-22T16:33:36.657Z,37.83
2018-02-22T16:36:04.054Z,43.95
2018-02-22T16:38:31.193Z,37.95
2018-02-22T16:40:58.797Z,43.65
2018-02-22T16:43:26.883Z,43.25
2018-02-22T16:45:54.779Z,48.30
2018-02-22T16:48:21.694Z,41.35
2018-02-22T16:50:49.750Z,45.40
2018-02-22T16:53:17.444Z,40.20
2018-02-22T16:55:45.970Z,45.53
2018-02-22T16:58:13.756Z,47.45
2018-02-22T17:00:41.476Z,43.45
2018-02-22T17:03:08.996Z,38.97
2018-02-22T17:05:41.190Z,43.53
2018-02-22T17:08:08.202Z,40.20
2018-02-22T17:10:35.124Z,34.95
2018-02-22T17:13:02.875Z,36.17
2018-02-22T17:15:30.662Z,43.65
2018-02-22T17:17:57.585Z,35.28
2018-02-22T17:20:25.698Z,38.80
2018-02-22T17:22:54.099Z,32.95
2018-02-22T17:25:21.039Z,41.25
2018-02-22T17:27:54.641Z,32.88
2018-02-22T17:30:27.558Z,41.13
2018-02-22T17:32:54.484Z,38.92
2018-02-22T17:38:30.678Z,44.55
2018-02-22T17:41:00.339Z,41.50
2018-02-22T17:43:33.197Z,49.45
2018-02-22T17:46:02.456Z,45.33
2018-02-22T17:48:30.318Z,41.37
2018-02-22T17:50:57.302Z,46.58
2018-02-22T17:53:27.967Z,44.65
2018-02-22T17:55:55.790Z,52.72
2018-02-22T17:58:25.324Z,54.38
2018-02-22T18:00:54.662Z,43.70
2018-02-22T18:03:21.691Z,45.85
2018-02-22T18:08:23.320Z,55.30
2018-02-22T18:10:51.386Z,62.80
2018-02-22T18:13:20.039Z,59.53
2018-02-22T18:15:49.209Z,55.92
2018-02-22T18:18:16.218Z,53.33
2018-02-22T18:20:47.332Z,48.38
2018-02-22T18:23:15.099Z,44.75
2018-02-22T18:25:42.162Z,40.03
2018-02-22T18:28:15.883Z,53.65
2018-02-22T18:30:43.994Z,49.72
2018-02-22T18:33:11.801Z,55.92
2018-02-22T18:35:40.315Z,45.53
2018-02-22T18:38:07.234Z,53.25
2018-02-22T18:40:40.095Z,55.63
2018-02-22T18:43:13.023Z,55.55
2018-02-22T18:45:39.868Z,64.32
2018-02-22T18:48:06.702Z,47.00
2018-02-22T18:50:33.722Z,43.70
2018-02-22T18:53:00.579Z,48.20
2018-02-22T18:55:27.450Z,44.97
2018-02-22T18:57:54.314Z,54.10
2018-02-22T19:00:21.952Z,53.72
2018-02-22T19:02:48.762Z,47.92
2018-02-22T19:05:15.677Z,48.85
2018-02-22T19:07:42.546Z,52.10
2018-02-22T19:10:09.405Z,51.50
2018-02-22T19:12:36.388Z,54.75
2018-02-22T19:15:03.314Z,50.75
2018-02-22T19:17:30.307Z,43.35
2018-02-22T19:19:57.187Z,57.40
2018-02-22T19:22:24.115Z,53.08
2018-02-22T19:24:50.922Z,52.47
2018-02-22T19:27:18.014Z,54.75
2018-02-22T19:29:45.097Z,52.47
2018-02-22T19:32:12.139Z,56.25
2018-02-22T19:34:39.223Z,43.17
2018-02-22T19:37:06.242Z,49.83
2018-02-22T19:39:33.107Z,45.25
2018-02-22T19:42:00.066Z,60.63
2018-02-22T19:44:27.043Z,48.80
2018-02-22T19:46:54.019Z,56.35
2018-02-22T19:49:20.892Z,49.47
2018-02-22T19:51:47.820Z,53.35
2018-02-22T19:54:14.756Z,45.50
2018-02-22T19:56:41.985Z,53.22
2018-02-22T19:59:08.954Z,55.40
2018-02-22T20:01:35.926Z,55.67
2018-02-22T20:04:02.979Z,55.90
2018-02-22T20:06:29.936Z,51.95
2018-02-22T20:08:56.860Z,50.75
2018-02-22T20:11:24.358Z,55.97
2018-02-22T20:13:51.320Z,54.08
2018-02-22T20:16:18.323Z,51.00
2018-02-22T20:18:46.779Z,58.75
2018-02-22T20:21:13.811Z,49.78
2018-02-22T20:23:41.355Z,56.50
2018-02-22T20:26:08.421Z,53.95
2018-02-22T20:28:36.139Z,58.28
2018-02-22T20:31:03.459Z,51.85
2018-02-22T20:33:30.329Z,61.80
2018-02-22T20:35:57.360Z,59.13
2018-02-22T20:38:24.346Z,49.85
2018-02-22T20:40:51.979Z,67.85
2018-02-22T20:43:18.997Z,59.30
2018-02-22T20:45:46.163Z,53.97
2018-02-22T20:48:13.189Z,65.10
2018-02-22T20:50:40.825Z,52.50
2018-02-22T20:53:14.016Z,50.30
2018-02-22T20:55:41.844Z,56.37
2018-02-22T20:58:09.615Z,55.45
2018-02-22T21:00:36.527Z,59.13
2018-02-22T21:03:03.403Z,55.72
2018-02-22T21:05:31.079Z,54.95
2018-02-22T21:07:58.107Z,62.88
2018-02-22T21:10:25.192Z,58.42
2018-02-22T21:12:53.174Z,57.13
2018-02-22T21:15:20.226Z,57.95
2018-02-22T21:17:47.952Z,59.50
2018-02-22T21:20:14.858Z,60.35
2018-02-22T21:22:42.515Z,63.03
2018-02-22T21:25:09.462Z,54.45
2018-02-22T21:27:36.350Z,61.00
2018-02-22T21:30:03.218Z,68.45
2018-02-22T21:32:30.061Z,60.72
2018-02-22T21:34:57.191Z,58.80
2018-02-22T21:37:24.291Z,70.18
2018-02-22T21:39:51.314Z,63.17
2018-02-22T21:42:18.297Z,69.93
2018-02-22T21:44:46.063Z,61.10
2018-02-22T21:47:12.954Z,65.57
2018-02-22T21:49:39.862Z,58.65
2018-02-22T21:52:06.883Z,57.28
2018-02-22T21:54:33.738Z,64.35
2018-02-22T21:57:01.932Z,61.00
2018-02-22T21:59:28.803Z,68.47
2018-02-22T22:01:55.670Z,64.45
2018-02-22T22:04:22.657Z,62.10
2018-02-22T22:06:50.647Z,57.05
2018-02-22T22:14:23.263Z,55.00
2018-02-22T22:16:50.959Z,51.95
2018-02-22T22:19:17.887Z,63.25
2018-02-22T22:21:45.419Z,51.85
2018-02-22T22:24:12.349Z,49.72
2018-02-22T22:26:39.829Z,50.08
2018-02-22T22:29:06.750Z,55.47
2018-02-22T22:31:33.578Z,53.38
2018-02-22T22:34:01.220Z,57.33
2018-02-22T22:36:28.905Z,50.53
2018-02-22T22:38:57.526Z,50.00
2018-02-22T22:41:24.370Z,55.08
2018-02-22T22:43:51.257Z,45.35
2018-02-22T22:46:22.873Z,48.00
2018-02-22T22:48:49.703Z,59.03
2018-02-22T22:51:16.547Z,51.22
2018-02-22T22:53:43.391Z,52.53
2018-02-22T22:56:11.346Z,50.08
2018-02-22T22:58:38.234Z,44.67
2018-02-22T23:01:05.090Z,44.85
2018-02-22T23:03:31.918Z,47.67
2018-02-22T23:05:58.757Z,45.80
2018-02-22T23:08:25.623Z,48.90
2018-02-22T23:10:56.483Z,52.85
2018-02-22T23:13:23.321Z,47.97
2018-02-22T23:15:51.438Z,53.78
2018-02-22T23:18:19.135Z,49.38
2018-02-22T23:20:54.800Z,59.38
2018-02-22T23:23:21.646Z,52.95
2018-02-22T23:25:48.538Z,52.78
2018-02-22T23:28:15.386Z,48.95
2018-02-22T23:30:42.202Z,47.40
2018-02-22T23:33:09.067Z,53.30
2018-02-22T23:35:35.954Z,53.33
2018-02-22T23:38:03.562Z,49.55
2018-02-22T23:40:32.202Z,49.22
2018-02-22T23:43:01.102Z,49.20
2018-02-22T23:45:28.725Z,49.53
2018-02-22T23:47:55.538Z,52.75
2018-02-22T23:50:22.403Z,53.45
2018-02-22T23:52:49.291Z,50.22
2018-02-22T23:55:16.966Z,48.87
2018-02-22T23:57:43.804Z,52.70
